Date,TemperatureHighF,TemperatureAvgF,TemperatureLowF,DewpointHighF,DewpointAvgF,DewpointLowF,HumidityHigh,HumidityAvg,HumidityLow,PressureMaxIn,PressureMinIn,WindSpeedMaxMPH,WindSpeedAvgMPH,GustSpeedMaxMPH,PrecipitationSumIn
2013-6-1,62,51,39,38,26,18,50,37,25,0.00,40.00,11,2,15,0.00
2013-6-2,73,63,52,32,27,22,35,26,19,0.00,40.00,17,10,32,0.00
2013-6-3,66,56,46,39,24,11,58,32,13,0.00,40.00,13,3,28,0.00
2013-6-4,69,56,47,35,27,16,52,33,26,0.00,40.00,7,2,20,0.00
2013-6-5,65,55,42,38,34,26,71,47,31,0.00,40.00,4,1,13,0.00
2013-6-6,72,60,50,39,34,27,54,39,25,0.00,40.00,4,1,16,0.00
2013-6-7,71,64,54,41,37,31,45,37,31,0.00,40.00,5,2,18,0.00
2013-6-8,71,63,56,43,35,26,61,37,24,0.00,40.00,6,3,16,0.00
2013-6-9,78,67,57,44,35,28,35,31,23,0.00,40.00,15,4,20,0.00
2013-6-10,80,71,65,38,32,20,35,24,15,0.00,40.00,18,10,37,0.00
2013-6-11,72,64,57,31,28,22,33,26,21,0.00,40.00,15,7,35,0.00
2013-6-12,71,64,55,40,32,29,40,31,22,0.00,40.00,17,8,37,0.00
2013-6-13,72,66,61,39,34,29,38,31,23,0.00,40.00,20,11,44,0.00
2013-6-15,62,59,58,32,29,22,35,32,24,0.00,40.00,8,4,11,0.00
2013-6-16,74,65,57,33,24,17,31,21,14,0.00,40.00,15,8,30,0.00
2013-6-17,78,66,56,35,22,15,31,19,13,0.00,40.00,8,4,22,0.00
2013-6-18,76,68,59,31,22,13,24,18,15,0.00,40.00,16,8,39,0.00
2013-6-19,66,60,45,34,24,18,38,26,17,0.00,40.00,23,10,45,0.00
2013-6-20,65,46,38,35,25,19,54,44,26,0.00,40.00,8,1,20,0.00
2013-6-22,65,55,49,39,35,25,59,47,29,0.00,40.00,7,2,21,0.00
2013-6-23,71,60,46,36,29,21,50,31,23,0.00,40.00,14,6,27,0.00
2013-6-24,68,60,48,45,34,27,91,41,29,0.00,40.00,18,10,37,0.00
2013-6-25,70,57,46,46,43,38,86,63,38,0.00,40.00,15,7,28,0.00
2013-6-26,80,69,60,51,45,38,55,43,31,0.00,40.00,14,7,25,0.00
2013-6-27,85,72,61,49,45,39,50,38,27,0.00,40.00,11,2,15,0.00
2013-6-28,85,75,64,48,42,39,45,32,22,0.00,40.00,5,1,18,0.00
2013-6-29,86,74,63,49,41,36,39,31,21,0.00,40.00,8,2,16,0.00
2013-6-30,84,73,59,54,42,32,61,35,20,0.00,40.00,13,3,22,0.00